sensor_id;sensor_type;location;lat;lon;timestamp;pressure;altitude;pressure_sealevel;temperature;humidity
24302;BME280;12421;49.732;20.078;2022-12-20T00:02:15;97792.30;;;2.12;61.74
24302;BME280;12421;49.732;20.078;2022-12-20T00:12:23;97777.02;;;2.25;61.58
24302;BME280;12421;49.732;20.078;2022-12-20T00:22:27;97773.78;;;2.37;60.91
24302;BME280;12421;49.732;20.078;2022-12-20T00:32:31;97767.52;;;2.41;61.69
24302;BME280;12421;49.732;20.078;2022-12-20T00:42:35;97771.83;;;2.31;63.53
24302;BME280;12421;49.732;20.078;2022-12-20T00:52:40;97781.92;;;2.27;64.82
24302;BME280;12421;49.732;20.078;2022-12-20T01:02:45;97777.04;;;2.26;65.67
24302;BME280;12421;49.732;20.078;2022-12-20T01:12:49;97760.20;;;2.24;65.36
24302;BME280;12421;49.732;20.078;2022-12-20T01:22:53;97755.30;;;2.43;63.47
24302;BME280;12421;49.732;20.078;2022-12-20T01:32:57;97759.88;;;2.56;63.92
24302;BME280;12421;49.732;20.078;2022-12-20T01:43:01;97753.66;;;2.57;64.75
24302;BME280;12421;49.732;20.078;2022-12-20T01:53:05;97748.58;;;2.55;63.78
24302;BME280;12421;49.732;20.078;2022-12-20T02:03:12;97738.44;;;2.84;61.61
24302;BME280;12421;49.732;20.078;2022-12-20T02:24:52;97707.92;;;3.07;60.65
24302;BME280;12421;49.732;20.078;2022-12-20T02:34:23;97697.48;;;3.00;61.53
24302;BME280;12421;49.732;20.078;2022-12-20T02:44:29;97705.64;;;2.89;64.00
24302;BME280;12421;49.732;20.078;2022-12-20T02:54:54;97700.03;;;2.70;66.06
24302;BME280;12421;49.732;20.078;2022-12-20T03:04:58;97684.47;;;2.66;66.57
24302;BME280;12421;49.732;20.078;2022-12-20T03:15:03;97668.03;;;2.56;67.23
24302;BME280;12421;49.732;20.078;2022-12-20T03:25:08;97677.64;;;2.48;67.78
24302;BME280;12421;49.732;20.078;2022-12-20T03:35:13;97686.27;;;2.47;68.94
24302;BME280;12421;49.732;20.078;2022-12-20T03:45:17;97685.26;;;2.48;69.14
24302;BME280;12421;49.732;20.078;2022-12-20T03:55:22;97685.34;;;2.45;69.62
24302;BME280;12421;49.732;20.078;2022-12-20T04:05:26;97686.67;;;2.38;70.03
24302;BME280;12421;49.732;20.078;2022-12-20T04:15:32;97684.33;;;2.41;70.44
24302;BME280;12421;49.732;20.078;2022-12-20T04:25:37;97669.89;;;2.39;70.29
24302;BME280;12421;49.732;20.078;2022-12-20T04:35:42;97657.70;;;2.27;69.70
24302;BME280;12421;49.732;20.078;2022-12-20T04:45:48;97656.80;;;2.10;68.77
24302;BME280;12421;49.732;20.078;2022-12-20T04:55:54;97658.16;;;2.09;68.17
24302;BME280;12421;49.732;20.078;2022-12-20T05:06:00;97650.90;;;2.15;67.18
24302;BME280;12421;49.732;20.078;2022-12-20T05:16:04;97651.91;;;2.04;67.05
24302;BME280;12421;49.732;20.078;2022-12-20T05:26:11;97646.52;;;1.73;68.63
24302;BME280;12421;49.732;20.078;2022-12-20T05:36:22;97659.52;;;1.54;69.49
24302;BME280;12421;49.732;20.078;2022-12-20T05:46:26;97664.98;;;1.52;69.86
24302;BME280;12421;49.732;20.078;2022-12-20T05:56:35;97664.62;;;1.41;70.55
24302;BME280;12421;49.732;20.078;2022-12-20T06:06:40;97669.61;;;1.22;70.84
24302;BME280;12421;49.732;20.078;2022-12-20T06:16:45;97669.14;;;1.01;71.17
24302;BME280;12421;49.732;20.078;2022-12-20T06:26:52;97677.05;;;0.82;71.88
24302;BME280;12421;49.732;20.078;2022-12-20T06:37:00;97674.66;;;0.52;71.63
24302;BME280;12421;49.732;20.078;2022-12-20T06:47:07;97676.12;;;0.20;72.26
24302;BME280;12421;49.732;20.078;2022-12-20T06:57:11;97680.58;;;0.03;72.43
24302;BME280;12421;49.732;20.078;2022-12-20T07:07:17;97677.64;;;0.07;73.15
24302;BME280;12421;49.732;20.078;2022-12-20T07:17:21;97673.75;;;0.26;73.70
24302;BME280;12421;49.732;20.078;2022-12-20T07:27:25;97661.77;;;0.45;73.41
24302;BME280;12421;49.732;20.078;2022-12-20T07:37:29;97651.27;;;0.59;73.22
24302;BME280;12421;49.732;20.078;2022-12-20T07:47:33;97647.42;;;0.80;73.15
24302;BME280;12421;49.732;20.078;2022-12-20T07:57:46;97650.23;;;1.04;72.74
24302;BME280;12421;49.732;20.078;2022-12-20T08:07:53;97651.42;;;1.26;72.45
24302;BME280;12421;49.732;20.078;2022-12-20T08:18:02;97649.29;;;1.49;72.14
24302;BME280;12421;49.732;20.078;2022-12-20T08:28:05;97645.36;;;1.84;72.13
24302;BME280;12421;49.732;20.078;2022-12-20T08:38:09;97642.31;;;2.33;71.34
24302;BME280;12421;49.732;20.078;2022-12-20T08:48:13;97634.85;;;2.65;70.48
24302;BME280;12421;49.732;20.078;2022-12-20T08:58:18;97636.44;;;3.01;70.81
24302;BME280;12421;49.732;20.078;2022-12-20T09:08:23;97619.59;;;3.36;70.66
24302;BME280;12421;49.732;20.078;2022-12-20T09:18:26;97612.06;;;3.77;70.44
24302;BME280;12421;49.732;20.078;2022-12-20T09:28:32;97605.11;;;4.03;69.04
24302;BME280;12421;49.732;20.078;2022-12-20T09:38:36;97598.48;;;4.31;67.11
24302;BME280;12421;49.732;20.078;2022-12-20T09:48:41;97590.48;;;4.53;67.57
24302;BME280;12421;49.732;20.078;2022-12-20T09:59:05;97584.75;;;4.76;67.52
24302;BME280;12421;49.732;20.078;2022-12-20T10:09:35;97575.67;;;4.90;67.74
24302;BME280;12421;49.732;20.078;2022-12-20T10:20:05;97581.40;;;5.14;67.92
24302;BME280;12421;49.732;20.078;2022-12-20T10:30:23;97565.80;;;5.26;67.78
24302;BME280;12421;49.732;20.078;2022-12-20T10:40:34;97540.67;;;5.31;67.64
24302;BME280;12421;49.732;20.078;2022-12-20T11:01:20;97487.94;;;5.41;68.05
24302;BME280;12421;49.732;20.078;2022-12-20T11:11:25;97461.95;;;5.29;67.56
24302;BME280;12421;49.732;20.078;2022-12-20T11:52:40;97454.03;;;5.55;66.38
24302;BME280;12421;49.732;20.078;2022-12-20T12:02:56;97438.05;;;6.10;66.28
24302;BME280;12421;49.732;20.078;2022-12-20T12:13:19;97421.93;;;6.55;65.62
24302;BME280;12421;49.732;20.078;2022-12-20T12:44:51;97402.23;;;5.92;65.26
24302;BME280;12421;49.732;20.078;2022-12-20T12:54:57;97395.05;;;5.58;64.75
24302;BME280;12421;49.732;20.078;2022-12-20T13:25:30;97364.23;;;5.05;66.61
24302;BME280;12421;49.732;20.078;2022-12-20T13:35:54;97369.33;;;5.17;65.88
24302;BME280;12421;49.732;20.078;2022-12-20T13:56:48;97368.74;;;4.58;66.84
24302;BME280;12421;49.732;20.078;2022-12-20T14:06:56;97366.23;;;4.20;68.00
24302;BME280;12421;49.732;20.078;2022-12-20T14:17:34;97372.27;;;3.93;68.96
24302;BME280;12421;49.732;20.078;2022-12-20T14:27:47;97367.64;;;3.65;69.74
24302;BME280;12421;49.732;20.078;2022-12-20T14:37:59;97360.73;;;3.30;70.85
24302;BME280;12421;49.732;20.078;2022-12-20T14:48:13;97362.18;;;3.04;71.91
24302;BME280;12421;49.732;20.078;2022-12-20T14:58:32;97368.70;;;2.95;72.75
24302;BME280;12421;49.732;20.078;2022-12-20T15:08:37;97363.75;;;2.77;73.42
24302;BME280;12421;49.732;20.078;2022-12-20T15:18:41;97359.17;;;2.68;73.93
24302;BME280;12421;49.732;20.078;2022-12-20T15:28:45;97362.14;;;2.56;74.42
24302;BME280;12421;49.732;20.078;2022-12-20T15:38:55;97361.95;;;2.43;74.97
24302;BME280;12421;49.732;20.078;2022-12-20T15:49:20;97348.06;;;2.42;75.27
24302;BME280;12421;49.732;20.078;2022-12-20T15:59:24;97350.16;;;2.42;75.40
24302;BME280;12421;49.732;20.078;2022-12-20T16:09:49;97335.45;;;2.49;75.93
24302;BME280;12421;49.732;20.078;2022-12-20T16:19:55;97336.66;;;2.56;75.90
24302;BME280;12421;49.732;20.078;2022-12-20T16:29:59;97343.10;;;2.44;75.96
24302;BME280;12421;49.732;20.078;2022-12-20T16:40:05;97340.95;;;2.35;76.56
24302;BME280;12421;49.732;20.078;2022-12-20T16:50:10;97336.75;;;2.27;76.74
24302;BME280;12421;49.732;20.078;2022-12-20T17:00:18;97327.34;;;2.25;76.93
24302;BME280;12421;49.732;20.078;2022-12-20T17:10:24;97303.46;;;2.33;77.09
24302;BME280;12421;49.732;20.078;2022-12-20T17:20:29;97284.00;;;2.37;77.10
24302;BME280;12421;49.732;20.078;2022-12-20T17:30:39;97287.16;;;2.32;76.32
24302;BME280;12421;49.732;20.078;2022-12-20T17:40:43;97278.70;;;2.33;75.25
24302;BME280;12421;49.732;20.078;2022-12-20T17:50:47;97285.07;;;2.31;75.14
24302;BME280;12421;49.732;20.078;2022-12-20T18:00:52;97274.27;;;2.29;75.21
24302;BME280;12421;49.732;20.078;2022-12-20T18:10:57;97289.11;;;2.27;74.73
24302;BME280;12421;49.732;20.078;2022-12-20T18:21:09;97268.67;;;2.27;75.16
24302;BME280;12421;49.732;20.078;2022-12-20T18:31:19;97255.39;;;2.22;75.69
24302;BME280;12421;49.732;20.078;2022-12-20T18:41:26;97232.04;;;2.17;75.69
24302;BME280;12421;49.732;20.078;2022-12-20T18:51:32;97223.84;;;2.02;76.06
24302;BME280;12421;49.732;20.078;2022-12-20T19:01:40;97208.07;;;1.89;75.81
24302;BME280;12421;49.732;20.078;2022-12-20T19:11:46;97215.66;;;1.88;75.94
24302;BME280;12421;49.732;20.078;2022-12-20T19:21:59;97210.69;;;2.08;75.55
24302;BME280;12421;49.732;20.078;2022-12-20T19:32:05;97208.79;;;2.22;75.06
24302;BME280;12421;49.732;20.078;2022-12-20T19:42:09;97196.54;;;2.31;75.24
24302;BME280;12421;49.732;20.078;2022-12-20T19:52:28;97191.84;;;2.37;74.88
24302;BME280;12421;49.732;20.078;2022-12-20T20:02:33;97184.30;;;2.33;74.22
24302;BME280;12421;49.732;20.078;2022-12-20T20:12:39;97183.13;;;2.21;74.97
24302;BME280;12421;49.732;20.078;2022-12-20T20:22:44;97186.54;;;2.32;74.19
24302;BME280;12421;49.732;20.078;2022-12-20T20:32:49;97188.69;;;2.43;73.65
24302;BME280;12421;49.732;20.078;2022-12-20T20:42:55;97192.02;;;2.44;74.20
24302;BME280;12421;49.732;20.078;2022-12-20T20:53:00;97186.41;;;2.48;73.85
24302;BME280;12421;49.732;20.078;2022-12-20T21:03:04;97189.99;;;2.46;74.40
24302;BME280;12421;49.732;20.078;2022-12-20T21:13:10;97168.02;;;2.41;74.15
24302;BME280;12421;49.732;20.078;2022-12-20T21:23:14;97165.20;;;2.17;74.20
24302;BME280;12421;49.732;20.078;2022-12-20T21:33:19;97155.49;;;1.91;74.61
24302;BME280;12421;49.732;20.078;2022-12-20T21:43:24;97153.55;;;1.63;75.15
24302;BME280;12421;49.732;20.078;2022-12-20T21:53:30;97142.17;;;1.52;75.54
24302;BME280;12421;49.732;20.078;2022-12-20T22:03:35;97130.01;;;1.44;75.91
24302;BME280;12421;49.732;20.078;2022-12-20T22:13:40;97117.44;;;1.39;76.33
24302;BME280;12421;49.732;20.078;2022-12-20T22:23:45;97098.05;;;1.27;76.55
24302;BME280;12421;49.732;20.078;2022-12-20T22:33:53;97071.74;;;1.13;76.91
24302;BME280;12421;49.732;20.078;2022-12-20T22:43:58;97053.55;;;1.05;76.85
24302;BME280;12421;49.732;20.078;2022-12-20T22:54:02;97050.70;;;0.90;76.58
24302;BME280;12421;49.732;20.078;2022-12-20T23:04:08;97057.79;;;0.72;77.15
24302;BME280;12421;49.732;20.078;2022-12-20T23:14:17;97024.94;;;0.59;77.27
24302;BME280;12421;49.732;20.078;2022-12-20T23:24:40;97024.23;;;0.65;78.21
24302;BME280;12421;49.732;20.078;2022-12-20T23:34:44;97005.15;;;0.62;78.23
24302;BME280;12421;49.732;20.078;2022-12-20T23:44:48;96989.35;;;0.65;78.26
24302;BME280;12421;49.732;20.078;2022-12-20T23:54:52;96993.55;;;0.73;78.27
